Time;durP1;ratioP1;P1;durP2;ratioP2;P2;SDS_P1;SDS_P2;PMS_P1;PMS_P2;Temp;Humidity;BMP_temperature;BMP_pressure;BME280_temperature;BME280_humidity;BME280_pressure;Samples;Min_cycle;Max_cycle;Signal;HPM_P1;HPM_P2
2021/05/19 00:00:54;;;;;;;31.90;14.85;;;;;;;10.74;68.04;98003.50;5037140;28;20029;-83
2021/05/19 00:03:19;;;;;;;25.25;12.73;;;;;;;10.71;67.91;97996.69;5044586;28;20047;-83
2021/05/19 00:05:46;;;;;;;28.63;13.75;;;;;;;10.68;68.08;98003.59;5045303;28;20383;-81
2021/05/19 00:08:11;;;;;;;29.52;14.00;;;;;;;10.64;68.69;97991.63;5064580;28;20032;-83
2021/05/19 00:10:37;;;;;;;26.08;13.18;;;;;;;10.63;68.51;97995.50;5064786;28;20048;-83
2021/05/19 00:13:03;;;;;;;27.67;13.02;;;;;;;10.65;68.56;97993.25;5065103;28;20024;-82
2021/05/19 00:15:29;;;;;;;27.50;13.27;;;;;;;10.67;68.50;97993.75;5053796;28;20052;-83
2021/05/19 00:17:54;;;;;;;27.38;12.77;;;;;;;10.69;68.79;97994.25;5046705;28;20060;-81
2021/05/19 00:20:21;;;;;;;27.02;13.38;;;;;;;10.66;68.96;97997.63;5040965;28;20012;-82
2021/05/19 00:22:47;;;;;;;28.38;13.68;;;;;;;10.68;68.69;97992.63;5036359;28;20024;-82
2021/05/19 00:25:13;;;;;;;27.67;13.93;;;;;;;10.69;68.83;97986.03;5042985;28;20029;-79
2021/05/19 00:27:39;;;;;;;27.25;13.73;;;;;;;10.72;68.87;97985.41;5044944;28;20604;-79
2021/05/19 00:30:06;;;;;;;24.73;13.43;;;;;;;10.74;68.21;97992.53;5044918;28;20028;-79
2021/05/19 00:32:33;;;;;;;28.40;14.40;;;;;;;10.74;68.84;97995.28;5045235;28;20013;-80
2021/05/19 00:34:58;;;;;;;24.95;13.57;;;;;;;10.75;69.28;97980.44;5046032;28;20217;-80
2021/05/19 00:37:24;;;;;;;22.23;12.90;;;;;;;10.72;68.87;97993.66;5044627;28;20165;-80
2021/05/19 00:39:49;;;;;;;30.20;14.18;;;;;;;10.68;68.66;97987.16;5041281;28;20587;-80
2021/05/19 00:42:15;;;;;;;29.75;15.02;;;;;;;10.63;68.66;97997.41;5036370;28;20049;-80
2021/05/19 00:44:41;;;;;;;27.25;13.45;;;;;;;10.58;68.82;97987.38;5036491;28;20108;-80
2021/05/19 00:47:09;;;;;;;26.85;13.15;;;;;;;10.57;69.04;97989.31;5049119;28;20054;-81
2021/05/19 00:49:34;;;;;;;26.10;13.45;;;;;;;10.55;68.48;97990.72;5049506;28;20035;-80
2021/05/19 00:52:00;;;;;;;25.98;13.38;;;;;;;10.52;68.56;97996.81;5045218;28;20019;-80
2021/05/19 00:54:25;;;;;;;26.85;13.45;;;;;;;10.49;68.08;98001.00;5044931;28;20506;-80
2021/05/19 00:56:51;;;;;;;24.15;12.75;;;;;;;10.47;68.58;98005.16;5044610;28;20394;-81
2021/05/19 00:59:18;;;;;;;21.75;11.32;;;;;;;10.49;68.69;98011.13;5046681;28;20040;-80
2021/05/19 01:01:44;;;;;;;19.10;10.05;;;;;;;10.48;68.67;98007.59;5042478;28;20063;-80
2021/05/19 01:04:10;;;;;;;19.80;10.45;;;;;;;10.46;68.69;98000.78;5049822;28;20065;-81
2021/05/19 01:06:51;;;;;;;14.93;8.63;;;;;;;10.43;68.48;98002.22;5038892;28;20025;-80
2021/05/19 01:09:35;;;;;;;20.08;10.10;;;;;;;10.41;69.50;98005.25;5043728;28;20055;-80
2021/05/19 01:12:02;;;;;;;17.80;10.65;;;;;;;10.40;69.35;98002.84;5045988;28;20874;-81
2021/05/19 01:14:27;;;;;;;16.88;10.73;;;;;;;10.40;68.60;98005.56;5046373;28;20033;-80
2021/05/19 01:16:53;;;;;;;18.38;9.77;;;;;;;10.39;69.06;98007.50;5049234;28;20357;-81
2021/05/19 01:19:20;;;;;;;14.95;9.40;;;;;;;10.39;68.80;98002.00;5053800;28;20044;-80
2021/05/19 01:21:48;;;;;;;19.55;10.60;;;;;;;10.44;68.76;98009.34;5055960;28;20752;-80
2021/05/19 01:24:13;;;;;;;14.63;8.77;;;;;;;10.45;69.11;98007.38;5035379;28;20021;-80
2021/05/19 01:26:39;;;;;;;17.83;10.50;;;;;;;10.47;68.49;98007.91;5037918;28;20515;-80
2021/05/19 01:29:06;;;;;;;20.50;11.32;;;;;;;10.52;69.73;98013.28;5045004;28;20028;-81
2021/05/19 01:31:32;;;;;;;21.88;11.73;;;;;;;10.53;69.00;98007.50;5044884;28;20097;-80
2021/05/19 01:33:59;;;;;;;28.98;12.80;;;;;;;10.54;68.72;98011.03;5045340;28;20017;-80
2021/05/19 01:36:24;;;;;;;20.58;11.88;;;;;;;10.58;69.52;98014.78;5045202;28;20017;-79
2021/05/19 01:38:50;;;;;;;24.10;10.80;;;;;;;10.57;69.35;98010.44;5044450;28;20043;-81
2021/05/19 01:41:16;;;;;;;24.95;12.60;;;;;;;10.54;68.80;98009.13;5044979;28;20551;-82
2021/05/19 01:43:41;;;;;;;22.38;11.43;;;;;;;10.52;69.18;98011.34;5039108;28;20079;-80
2021/05/19 01:46:07;;;;;;;23.13;12.13;;;;;;;10.51;69.04;98014.38;5037201;28;20697;-81
2021/05/19 01:48:34;;;;;;;26.73;12.18;;;;;;;10.51;69.32;98019.88;5040202;28;20450;-81
2021/05/19 01:51:02;;;;;;;20.30;10.23;;;;;;;10.46;69.34;98012.59;5048042;28;20059;-79
2021/05/19 01:53:30;;;;;;;21.90;11.55;;;;;;;10.45;68.66;98015.63;5048127;28;20029;-82
2021/05/19 01:55:55;;;;;;;22.85;11.88;;;;;;;10.45;69.21;98015.63;5050221;28;20523;-81
2021/05/19 01:58:21;;;;;;;19.52;10.38;;;;;;;10.43;68.77;98011.25;5052189;28;20021;-82
2021/05/19 02:00:47;;;;;;;23.38;11.10;;;;;;;10.41;68.85;98018.97;5047847;28;20502;-81
2021/05/19 02:03:13;;;;;;;17.25;10.30;;;;;;;10.44;69.20;98014.81;5047452;28;20055;-80
2021/05/19 02:05:39;;;;;;;19.67;10.82;;;;;;;10.45;69.37;98012.88;5039046;28;20641;-80
2021/05/19 02:08:06;;;;;;;17.55;9.98;;;;;;;10.45;68.94;98015.63;5039022;28;20115;-80
2021/05/19 02:10:33;;;;;;;16.17;10.20;;;;;;;10.42;68.43;98004.13;5045441;28;20035;-80
2021/05/19 02:13:06;;;;;;;18.08;10.18;;;;;;;10.37;68.66;98008.91;5047560;28;20029;-80
2021/05/19 02:15:32;;;;;;;16.67;10.40;;;;;;;10.38;69.05;98007.78;5047836;28;20017;-80
2021/05/19 02:17:58;;;;;;;21.17;11.15;;;;;;;10.36;69.14;98001.78;5047745;28;20375;-81
2021/05/19 02:20:25;;;;;;;20.15;10.73;;;;;;;10.33;69.70;98000.50;5048840;28;20064;-81
2021/05/19 02:22:51;;;;;;;19.58;10.30;;;;;;;10.32;69.32;98001.59;5047209;28;20077;-79
2021/05/19 02:25:18;;;;;;;17.50;10.00;;;;;;;10.30;69.31;98006.56;5046288;28;20977;-79
2021/05/19 02:27:45;;;;;;;23.00;11.00;;;;;;;10.26;68.86;98002.81;5043562;28;20128;-77
2021/05/19 02:30:11;;;;;;;18.70;10.50;;;;;;;10.25;68.67;98001.19;5040010;28;20079;-79
2021/05/19 02:32:38;;;;;;;21.85;11.23;;;;;;;10.20;68.94;97991.13;5048038;28;20028;-79
2021/05/19 02:35:04;;;;;;;16.98;9.52;;;;;;;10.16;69.51;97998.38;5047265;28;20029;-78
2021/05/19 02:37:30;;;;;;;19.38;10.43;;;;;;;10.10;68.98;98003.13;5062063;28;20039;-78
2021/05/19 02:39:55;;;;;;;27.38;12.02;;;;;;;10.06;68.88;98004.03;5047109;28;20386;-79
2021/05/19 02:42:21;;;;;;;21.13;11.20;;;;;;;10.04;69.19;98012.56;5047281;28;20052;-78
2021/05/19 02:44:46;;;;;;;20.20;11.30;;;;;;;10.04;69.78;97998.84;5064575;28;20037;-77
2021/05/19 02:47:11;;;;;;;18.98;9.70;;;;;;;10.06;69.64;97996.63;5044647;28;20113;-77
2021/05/19 02:49:39;;;;;;;21.92;11.43;;;;;;;10.05;69.34;97994.19;5037491;28;20032;-77
2021/05/19 02:52:04;;;;;;;18.20;11.65;;;;;;;10.08;69.33;97996.31;5041827;28;20072;-78
2021/05/19 02:54:30;;;;;;;18.50;10.98;;;;;;;10.08;69.59;97990.84;5064800;28;20533;-77
2021/05/19 02:56:56;;;;;;;29.10;13.48;;;;;;;10.07;69.17;98000.19;5066020;28;20043;-79
2021/05/19 02:59:21;;;;;;;28.95;14.52;;;;;;;10.05;69.84;97997.72;5065944;28;20031;-78
2021/05/19 03:01:47;;;;;;;28.67;15.55;;;;;;;10.03;68.92;98010.94;5065450;28;20040;-77
2021/05/19 03:04:13;;;;;;;25.02;14.25;;;;;;;10.03;69.36;97999.16;5066668;28;20608;-77
2021/05/19 03:06:38;;;;;;;23.83;13.00;;;;;;;9.98;69.60;98009.09;5064701;28;20039;-78
2021/05/19 03:09:05;;;;;;;27.83;13.50;;;;;;;9.97;69.47;98009.44;5056966;28;20445;-79
2021/05/19 03:11:31;;;;;;;18.52;10.48;;;;;;;9.98;68.89;98022.00;5058092;28;20719;-78
2021/05/19 03:13:56;;;;;;;22.50;10.35;;;;;;;9.96;69.61;98024.25;5064628;28;20021;-79
2021/05/19 03:16:22;;;;;;;24.52;12.13;;;;;;;9.92;69.25;98029.50;5068183;28;20024;-79
2021/05/19 03:18:48;;;;;;;21.95;11.60;;;;;;;9.88;68.72;98028.47;5074886;28;20429;-79
2021/05/19 03:21:14;;;;;;;20.33;11.40;;;;;;;9.88;69.12;98033.16;5073917;28;20037;-78
2021/05/19 03:23:40;;;;;;;19.85;11.73;;;;;;;9.91;69.65;98029.81;5073555;28;20039;-79
2021/05/19 03:26:05;;;;;;;21.98;12.07;;;;;;;9.89;69.52;98026.56;5075031;28;20150;-78
2021/05/19 03:28:31;;;;;;;22.92;11.40;;;;;;;9.83;69.42;98023.91;5076686;28;20029;-77
2021/05/19 03:30:56;;;;;;;24.38;12.27;;;;;;;9.79;69.52;98028.34;5075092;28;20112;-77
2021/05/19 03:33:22;;;;;;;21.88;13.50;;;;;;;9.75;69.37;98024.59;5075793;28;20029;-78
2021/05/19 03:35:48;;;;;;;23.30;13.45;;;;;;;9.71;69.41;98028.25;5074523;28;20034;-77
2021/05/19 03:38:14;;;;;;;26.92;15.43;;;;;;;9.67;69.27;98039.81;5074598;28;20029;-77
2021/05/19 03:40:40;;;;;;;31.58;15.05;;;;;;;9.68;69.01;98033.22;5074466;28;20025;-77
2021/05/19 03:43:05;;;;;;;21.95;11.88;;;;;;;9.70;69.53;98041.13;5074574;28;20108;-77
2021/05/19 03:45:31;;;;;;;20.75;11.80;;;;;;;9.72;69.57;98041.63;5074486;28;20594;-77
2021/05/19 03:47:57;;;;;;;24.02;11.50;;;;;;;9.75;69.64;98049.25;5074195;28;20056;-77
2021/05/19 03:50:25;;;;;;;21.90;11.13;;;;;;;9.80;69.88;98062.03;5074089;28;20378;-77
2021/05/19 03:52:52;;;;;;;27.40;12.20;;;;;;;9.83;70.31;98056.78;5074176;28;20035;-78
2021/05/19 03:55:18;;;;;;;23.58;10.95;;;;;;;9.85;69.95;98063.88;5074179;28;20020;-76
2021/05/19 03:57:43;;;;;;;20.38;11.02;;;;;;;9.83;70.27;98065.00;5070555;28;20386;-77
2021/05/19 04:00:15;;;;;;;22.45;12.48;;;;;;;9.79;70.17;98077.66;5072922;28;20033;-78
2021/05/19 04:02:40;;;;;;;21.50;10.50;;;;;;;9.77;70.46;98068.94;5073720;28;20429;-77
2021/05/19 04:05:07;;;;;;;21.08;11.13;;;;;;;9.73;69.89;98076.13;5073355;28;20039;-77
2021/05/19 04:07:32;;;;;;;18.75;10.43;;;;;;;9.74;69.77;98080.47;5073685;28;20103;-77
2021/05/19 04:09:58;;;;;;;19.98;11.65;;;;;;;9.75;70.39;98076.63;5073590;28;20119;-77
2021/05/19 04:12:23;;;;;;;20.27;12.90;;;;;;;9.79;70.18;98080.41;5073361;28;20528;-77
2021/05/19 04:14:48;;;;;;;21.40;12.32;;;;;;;9.84;70.27;98087.69;5073513;28;20101;-78
2021/05/19 04:17:14;;;;;;;22.88;14.02;;;;;;;9.91;70.68;98090.06;5073469;28;20058;-77
2021/05/19 04:19:39;;;;;;;25.83;13.93;;;;;;;9.96;70.83;98092.72;5073568;28;20028;-77
2021/05/19 04:22:05;;;;;;;20.63;12.32;;;;;;;10.04;70.54;98093.94;5073408;28;20028;-77
2021/05/19 04:24:30;;;;;;;19.25;11.32;;;;;;;10.12;71.06;98082.28;5073375;28;20029;-77
2021/05/19 04:26:56;;;;;;;20.48;12.25;;;;;;;10.16;71.31;98085.22;5073393;28;20028;-77
2021/05/19 04:29:21;;;;;;;24.23;12.20;;;;;;;10.21;71.18;98087.88;5073117;28;20029;-77
2021/05/19 04:31:46;;;;;;;22.15;11.10;;;;;;;10.24;71.26;98090.00;5073227;28;20025;-77
2021/05/19 04:34:12;;;;;;;22.17;12.85;;;;;;;10.27;71.32;98086.66;5071877;28;20028;-78
2021/05/19 04:36:37;;;;;;;19.60;11.32;;;;;;;10.36;71.03;98090.34;5073203;28;20099;-77
2021/05/19 04:39:05;;;;;;;23.95;12.38;;;;;;;10.43;71.70;98096.22;5071976;28;20025;-77
2021/05/19 04:41:30;;;;;;;22.05;11.77;;;;;;;10.49;70.93;98088.75;5073267;28;20032;-78
2021/05/19 04:43:55;;;;;;;23.30;11.50;;;;;;;10.57;71.69;98089.94;5073282;28;20489;-78
2021/05/19 04:46:21;;;;;;;25.55;12.43;;;;;;;10.63;71.52;98085.16;5073082;28;20052;-79
2021/05/19 04:48:46;;;;;;;28.73;13.35;;;;;;;10.66;71.56;98085.38;5072940;28;20482;-78
2021/05/19 04:51:12;;;;;;;21.77;10.73;;;;;;;10.74;71.19;98088.53;5073065;28;20032;-78
2021/05/19 04:53:37;;;;;;;24.02;11.93;;;;;;;10.77;71.60;98085.97;5072907;28;20036;-78
2021/05/19 04:56:03;;;;;;;16.80;9.35;;;;;;;10.82;71.80;98085.88;5071406;28;20547;-78
2021/05/19 04:58:28;;;;;;;21.67;11.52;;;;;;;10.87;71.01;98094.00;5072122;28;20032;-75
2021/05/19 05:00:54;;;;;;;20.38;10.45;;;;;;;10.88;71.64;98089.31;5072577;28;20416;-80
2021/05/19 05:03:20;;;;;;;19.88;11.07;;;;;;;10.92;71.23;98087.56;5072469;28;20086;-78
2021/05/19 05:05:46;;;;;;;18.15;9.40;;;;;;;10.99;71.66;98087.16;5072584;28;20052;-78
2021/05/19 05:08:11;;;;;;;19.85;10.27;;;;;;;11.04;71.56;98083.50;5072513;28;20035;-79
2021/05/19 05:10:37;;;;;;;22.67;13.05;;;;;;;11.13;71.55;98092.63;5072542;28;20024;-80
2021/05/19 05:13:03;;;;;;;24.17;11.73;;;;;;;11.20;71.04;98098.50;5072803;28;20475;-79
2021/05/19 05:15:28;;;;;;;23.55;12.02;;;;;;;11.23;71.14;98105.28;5072559;28;20078;-79
2021/05/19 05:17:53;;;;;;;28.48;12.55;;;;;;;11.28;71.37;98099.69;5072286;28;20115;-78
2021/05/19 05:20:19;;;;;;;25.63;13.65;;;;;;;11.34;70.79;98101.19;5072271;28;20024;-79
2021/05/19 05:22:45;;;;;;;24.85;13.32;;;;;;;11.41;71.20;98101.56;5070375;28;20028;-78
2021/05/19 05:25:12;;;;;;;26.98;13.02;;;;;;;11.47;71.16;98099.53;5072381;28;20039;-77
2021/05/19 05:27:37;;;;;;;20.58;11.93;;;;;;;11.48;70.94;98112.13;5072270;28;20031;-79
2021/05/19 05:30:04;;;;;;;22.60;13.02;;;;;;;11.51;70.39;98108.78;5072423;28;20024;-78
2021/05/19 05:32:29;;;;;;;24.10;14.30;;;;;;;11.57;70.53;98109.44;5070997;28;20033;-78
2021/05/19 05:34:55;;;;;;;25.77;12.25;;;;;;;11.66;70.80;98117.75;5072355;28;20107;-77
2021/05/19 05:37:21;;;;;;;23.20;11.85;;;;;;;11.69;70.82;98117.94;5072350;28;20035;-77
2021/05/19 05:39:47;;;;;;;24.63;11.80;;;;;;;11.74;70.58;98120.56;5072268;28;20074;-76
2021/05/19 05:42:12;;;;;;;23.30;12.43;;;;;;;11.78;70.84;98120.75;5072391;28;20037;-77
2021/05/19 05:44:37;;;;;;;19.45;11.43;;;;;;;11.82;70.35;98121.75;5072134;28;20021;-78
2021/05/19 05:47:03;;;;;;;19.35;10.40;;;;;;;11.84;70.32;98124.19;5070735;28;20107;-78
2021/05/19 05:49:28;;;;;;;16.75;9.73;;;;;;;11.89;70.60;98129.53;5071292;28;20055;-77
2021/05/19 05:51:53;;;;;;;18.50;9.82;;;;;;;11.86;69.96;98122.75;5070213;28;20024;-77
2021/05/19 05:54:19;;;;;;;23.02;12.27;;;;;;;11.84;70.27;98126.91;5069325;28;20032;-77
2021/05/19 05:56:44;;;;;;;18.63;10.52;;;;;;;11.80;69.93;98131.44;5069331;28;20435;-78
2021/05/19 05:59:10;;;;;;;23.40;11.27;;;;;;;11.77;70.30;98136.44;5069333;28;20032;-78
2021/05/19 06:01:35;;;;;;;22.33;13.85;;;;;;;11.78;70.45;98137.25;5070142;28;20491;-77
2021/05/19 06:04:01;;;;;;;24.95;13.30;;;;;;;11.72;70.00;98138.47;5070650;28;20035;-77
2021/05/19 06:06:26;;;;;;;25.23;14.20;;;;;;;11.70;69.88;98137.97;5071256;28;20051;-77
2021/05/19 06:08:52;;;;;;;27.92;16.30;;;;;;;11.67;70.32;98144.91;5072017;28;20408;-78
2021/05/19 06:11:17;;;;;;;33.30;15.70;;;;;;;11.68;69.61;98154.78;5072105;28;20028;-76
2021/05/19 06:13:43;;;;;;;25.40;13.00;;;;;;;11.67;70.03;98146.84;5071994;28;20025;-77
2021/05/19 06:16:08;;;;;;;27.40;15.20;;;;;;;11.70;69.97;98141.56;5071869;28;20043;-78
2021/05/19 06:18:33;;;;;;;28.00;14.88;;;;;;;11.73;69.96;98149.16;5071914;28;20108;-78
2021/05/19 06:20:59;;;;;;;29.83;15.07;;;;;;;11.76;69.76;98142.22;5071908;28;20378;-78
2021/05/19 06:23:24;;;;;;;33.60;17.20;;;;;;;11.88;70.68;98148.00;5071930;28;20111;-78
2021/05/19 06:25:50;;;;;;;26.55;15.18;;;;;;;11.98;70.70;98146.13;5071898;28;20538;-77
2021/05/19 06:28:15;;;;;;;26.80;14.20;;;;;;;12.02;69.79;98141.66;5071629;28;20036;-78
2021/05/19 06:30:40;;;;;;;26.67;15.18;;;;;;;12.08;69.85;98145.06;5071751;28;20086;-78
2021/05/19 06:33:06;;;;;;;24.60;14.07;;;;;;;12.18;69.97;98137.38;5070455;28;20017;-78
2021/05/19 06:35:31;;;;;;;27.92;16.65;;;;;;;12.30;70.21;98141.47;5074342;28;20032;-78
2021/05/19 06:37:57;;;;;;;25.90;15.02;;;;;;;12.39;70.18;98141.50;5075386;28;20039;-78
2021/05/19 06:40:23;;;;;;;21.85;13.02;;;;;;;12.48;69.89;98145.91;5075222;28;20031;-78
2021/05/19 06:42:49;;;;;;;20.65;12.65;;;;;;;12.53;69.34;98133.16;5075080;28;20557;-77
2021/05/19 06:45:15;;;;;;;30.30;15.57;;;;;;;12.54;69.28;98140.28;5075085;28;20111;-77
2021/05/19 06:47:40;;;;;;;27.83;14.85;;;;;;;12.60;69.30;98134.34;5075106;28;20108;-78
2021/05/19 06:50:06;;;;;;;24.27;13.63;;;;;;;12.65;68.86;98138.88;5075091;28;20097;-77
2021/05/19 06:52:32;;;;;;;27.00;15.00;;;;;;;12.70;69.00;98143.41;5075020;28;20016;-77
2021/05/19 06:54:57;;;;;;;30.70;15.75;;;;;;;12.75;69.03;98144.09;5075152;28;20037;-76
2021/05/19 06:57:23;;;;;;;26.35;14.82;;;;;;;12.79;68.94;98147.84;5073801;28;20490;-76
2021/05/19 06:59:51;;;;;;;27.15;14.40;;;;;;;12.83;68.52;98141.72;5074740;28;20382;-77
2021/05/19 07:02:17;;;;;;;28.92;16.35;;;;;;;12.84;68.51;98151.59;5074730;28;20052;-77
2021/05/19 07:04:42;;;;;;;25.75;15.55;;;;;;;12.82;67.99;98149.13;5074875;28;20031;-78
2021/05/19 07:07:07;;;;;;;30.20;16.77;;;;;;;12.82;67.74;98151.88;5074623;28;20079;-78
2021/05/19 07:09:33;;;;;;;30.65;16.75;;;;;;;12.77;67.66;98155.59;5073264;28;20120;-78
2021/05/19 07:11:58;;;;;;;30.88;18.10;;;;;;;12.78;68.05;98153.66;5074691;28;20067;-78
2021/05/19 07:14:23;;;;;;;29.88;17.65;;;;;;;12.80;68.24;98154.16;5074756;28;20421;-77
2021/05/19 07:16:54;;;;;;;23.60;15.18;;;;;;;12.82;68.00;98154.63;5074437;28;20031;-77
2021/05/19 07:19:21;;;;;;;25.95;16.52;;;;;;;12.80;67.73;98154.97;5074777;28;20032;-78
2021/05/19 07:21:46;;;;;;;29.95;18.45;;;;;;;12.84;68.13;98166.13;5074847;28;20020;-77
2021/05/19 07:24:12;;;;;;;31.17;19.38;;;;;;;12.83;67.58;98164.50;5074558;28;20155;-76
2021/05/19 07:26:42;;;;;;;32.38;19.88;;;;;;;12.78;67.67;98157.22;5074554;28;20029;-78
2021/05/19 07:29:09;;;;;;;28.85;18.10;;;;;;;12.82;67.56;98151.88;5074092;28;21945;-78
2021/05/19 07:31:35;;;;;;;33.45;18.67;;;;;;;12.86;67.47;98154.81;5073944;28;20086;-79
2021/05/19 07:34:02;;;;;;;35.63;23.15;;;;;;;12.91;67.96;98155.47;5071619;28;20382;-79
2021/05/19 07:36:27;;;;;;;37.30;22.77;;;;;;;12.98;68.00;98152.25;5070678;28;20028;-79
2021/05/19 07:38:53;;;;;;;36.17;21.42;;;;;;;13.06;67.94;98153.41;5074273;28;20031;-79
2021/05/19 07:41:20;;;;;;;35.88;20.73;;;;;;;13.05;67.47;98158.09;5073505;28;20029;-77
2021/05/19 07:43:45;;;;;;;36.83;21.65;;;;;;;13.02;67.02;98157.94;5061687;28;20028;-78
2021/05/19 07:46:11;;;;;;;76.82;31.38;;;;;;;12.95;66.89;98161.97;5064808;28;20040;-77
2021/05/19 07:48:36;;;;;;;53.50;24.67;;;;;;;12.98;66.92;98163.25;5065493;28;20467;-78
2021/05/19 07:51:02;;;;;;;38.25;20.25;;;;;;;13.01;66.86;98159.88;5065296;28;20496;-77
2021/05/19 07:53:27;;;;;;;33.15;20.33;;;;;;;13.03;66.91;98162.31;5065288;28;20012;-77
2021/05/19 07:58:36;;;;;;;31.23;18.35;;;;;;;13.20;67.13;98153.28;5065804;28;20401;-77
2021/05/19 08:03:33;;;;;;;32.40;18.13;;;;;;;13.42;67.28;98159.81;5065057;28;20055;-77
2021/05/19 08:05:59;;;;;;;32.13;18.98;;;;;;;13.46;67.06;98160.81;5064922;28;20692;-77
2021/05/19 08:08:24;;;;;;;28.70;16.27;;;;;;;13.50;67.05;98156.28;5063296;28;20052;-78
2021/05/19 08:10:50;;;;;;;21.98;14.77;;;;;;;13.54;66.69;98160.00;5064966;28;20555;-79
2021/05/19 08:13:15;;;;;;;20.17;13.90;;;;;;;13.55;66.53;98156.09;5060342;28;20033;-78
2021/05/19 08:15:41;;;;;;;23.20;14.77;;;;;;;13.54;66.74;98154.50;5063809;28;20084;-78
2021/05/19 08:18:09;;;;;;;22.55;15.48;;;;;;;13.58;66.65;98155.47;5064411;28;20139;-78
2021/05/19 08:20:35;;;;;;;20.35;13.57;;;;;;;13.62;66.41;98150.09;5065030;28;20036;-78
2021/05/19 08:23:00;;;;;;;21.60;13.82;;;;;;;13.64;66.46;98154.19;5064264;28;20028;-78
2021/05/19 08:25:26;;;;;;;22.85;14.23;;;;;;;13.70;66.41;98155.59;5063733;28;20020;-77
2021/05/19 08:27:51;;;;;;;18.52;12.15;;;;;;;13.66;65.96;98143.63;5060879;28;20567;-76
2021/05/19 08:30:17;;;;;;;25.98;13.32;;;;;;;13.66;65.88;98157.38;5062967;28;20044;-77
2021/05/19 08:32:43;;;;;;;22.60;13.85;;;;;;;13.72;66.18;98144.28;5062420;28;20588;-75
2021/05/19 08:35:09;;;;;;;21.10;14.95;;;;;;;13.79;66.12;98154.81;5064698;28;20036;-76
2021/05/19 08:37:37;;;;;;;31.63;16.27;;;;;;;13.83;66.00;98151.09;5070712;28;20032;-78
2021/05/19 08:40:04;;;;;;;21.17;13.63;;;;;;;13.82;65.50;98156.91;5072623;28;20056;-77
2021/05/19 08:42:32;;;;;;;20.80;13.82;;;;;;;13.82;65.63;98154.16;5073075;28;20028;-77
2021/05/19 08:44:58;;;;;;;24.63;13.73;;;;;;;13.84;65.34;98154.63;5072694;28;20025;-77
2021/05/19 08:47:24;;;;;;;24.95;14.10;;;;;;;13.87;65.44;98142.13;5072928;28;20021;-77
2021/05/19 08:49:51;;;;;;;22.15;12.55;;;;;;;13.89;65.34;98148.97;5071919;28;20075;-77
2021/05/19 08:52:18;;;;;;;17.05;11.75;;;;;;;13.96;65.41;98145.72;5072769;28;20028;-79
2021/05/19 08:54:43;;;;;;;17.70;11.85;;;;;;;13.92;65.06;98145.56;5058828;28;20036;-77
2021/05/19 08:57:10;;;;;;;22.88;12.68;;;;;;;13.89;65.21;98143.44;5062428;28;20110;-75
2021/05/19 08:59:37;;;;;;;21.40;14.18;;;;;;;13.96;65.45;98142.94;5062065;28;20060;-75
2021/05/19 09:02:16;;;;;;;19.85;12.60;;;;;;;14.04;65.34;98144.88;5060100;28;20052;-75
2021/05/19 09:04:44;;;;;;;15.63;10.93;;;;;;;14.06;64.97;98139.06;5063388;28;20031;-77
2021/05/19 09:07:19;;;;;;;22.90;11.77;;;;;;;14.08;65.19;98145.03;5067815;28;20425;-78
2021/05/19 09:09:45;;;;;;;15.80;9.88;;;;;;;14.12;64.91;98140.47;5072644;28;20119;-78
2021/05/19 09:12:13;;;;;;;39.45;15.48;;;;;;;14.18;64.70;98139.19;5072690;28;20107;-79
2021/05/19 09:14:38;;;;;;;30.48;11.60;;;;;;;14.23;64.71;98136.25;5072919;28;20096;-77
2021/05/19 09:17:24;;;;;;;48.67;18.17;;;;;;;14.25;64.59;98139.50;5072761;28;20060;-78
2021/05/19 09:19:52;;;;;;;11.80;7.90;;;;;;;14.26;64.25;98145.84;5072757;28;20107;-76
2021/05/19 09:22:25;;;;;;;11.80;8.20;;;;;;;14.18;63.75;98141.94;5072949;28;20386;-78
2021/05/19 09:24:53;;;;;;;15.23;10.10;;;;;;;14.21;64.24;98144.03;5071399;28;20027;-77
2021/05/19 09:27:19;;;;;;;13.50;9.60;;;;;;;14.20;64.07;98142.41;5072623;28;20056;-78
2021/05/19 09:29:54;;;;;;;16.25;10.45;;;;;;;14.23;64.53;98150.03;5072196;28;20024;-77
2021/05/19 09:32:20;;;;;;;13.98;10.48;;;;;;;14.28;64.88;98141.59;5071790;28;20117;-77
2021/05/19 09:34:49;;;;;;;20.80;11.80;;;;;;;14.29;64.71;98140.44;5072214;28;20021;-78
2021/05/19 09:37:29;;;;;;;17.42;10.68;;;;;;;14.38;64.76;98137.66;5072237;28;20032;-76
2021/05/19 09:40:09;;;;;;;15.23;8.10;;;;;;;14.50;64.64;98133.41;5072328;28;20033;-77
2021/05/19 09:42:35;;;;;;;10.77;7.95;;;;;;;14.56;64.54;98134.84;5072270;28;20093;-77
2021/05/19 09:45:14;;;;;;;10.45;7.65;;;;;;;14.61;64.22;98137.44;5072148;28;20106;-78
2021/05/19 09:47:43;;;;;;;13.07;8.48;;;;;;;14.64;63.62;98125.72;5072232;28;20112;-76
2021/05/19 09:50:12;;;;;;;10.90;8.32;;;;;;;14.66;63.51;98125.38;5072258;28;20386;-78
2021/05/19 09:52:38;;;;;;;21.63;10.20;;;;;;;14.69;63.28;98120.03;5070848;28;20509;-76
2021/05/19 09:55:10;;;;;;;29.35;11.70;;;;;;;14.64;62.74;98122.16;5072111;28;20021;-77
2021/05/19 09:57:44;;;;;;;23.63;10.38;;;;;;;14.58;62.26;98124.28;5072232;28;20029;-77
2021/05/19 10:00:12;;;;;;;21.92;10.35;;;;;;;14.55;62.85;98136.78;5072102;28;20039;-77
2021/05/19 10:02:38;;;;;;;14.52;8.85;;;;;;;14.59;62.94;98131.44;5071713;28;20041;-77
2021/05/19 10:05:12;;;;;;;10.60;7.03;;;;;;;14.54;62.69;98134.38;5072060;28;20025;-78
2021/05/19 10:07:38;;;;;;;28.20;13.25;;;;;;;14.44;62.77;98130.81;5070751;28;20025;-78
2021/05/19 10:10:04;;;;;;;27.15;11.52;;;;;;;14.41;62.76;98133.44;5074310;28;20025;-78
2021/05/19 10:12:30;;;;;;;8.48;5.45;;;;;;;14.36;62.71;98131.66;5075624;28;20031;-77
2021/05/19 10:14:58;;;;;;;8.43;5.22;;;;;;;14.31;62.50;98134.59;5074606;28;20024;-79
2021/05/19 10:17:24;;;;;;;16.85;10.45;;;;;;;14.34;62.76;98136.69;5075780;28;20021;-78
2021/05/19 10:19:58;;;;;;;9.32;5.78;;;;;;;14.39;62.50;98130.22;5075576;28;20035;-78
2021/05/19 10:22:28;;;;;;;19.23;10.57;;;;;;;14.47;63.00;98128.56;5075685;28;20039;-77
2021/05/19 10:25:03;;;;;;;18.70;8.38;;;;;;;14.57;62.79;98125.44;5075457;28;20024;-78
2021/05/19 10:27:47;;;;;;;31.25;11.88;;;;;;;14.65;62.83;98130.13;5075475;28;20028;-78
2021/05/19 10:30:38;;;;;;;29.52;11.18;;;;;;;14.76;61.98;98127.81;5075222;28;20044;-79
2021/05/19 10:33:05;;;;;;;16.55;8.20;;;;;;;14.72;62.05;98127.66;5073780;28;20104;-77
2021/05/19 10:35:33;;;;;;;14.02;7.20;;;;;;;14.79;62.40;98126.31;5075357;28;20024;-78
2021/05/19 10:38:20;;;;;;;22.52;10.35;;;;;;;14.86;62.69;98124.69;5075173;28;20028;-78
2021/05/19 10:40:54;;;;;;;16.10;7.60;;;;;;;14.94;62.58;98130.47;5073786;28;20070;-78
2021/05/19 10:43:20;;;;;;;9.25;5.50;;;;;;;14.97;61.64;98130.63;5075298;28;20028;-78
2021/05/19 10:46:01;;;;;;;8.20;5.13;;;;;;;14.92;61.70;98132.75;5075190;28;20077;-77
2021/05/19 10:48:36;;;;;;;13.48;7.13;;;;;;;14.91;61.51;98131.97;5075106;28;20035;-79
2021/05/19 10:51:43;;;;;;;28.65;13.18;;;;;;;14.87;61.59;98133.75;5073906;28;20036;-78
2021/05/19 11:00:27;;;;;;;36.80;24.48;;;;;;;14.77;61.72;98123.09;5065698;28;20517;-76
2021/05/19 11:02:57;;;;;;;83.25;27.75;;;;;;;14.74;61.68;98121.81;5070566;28;20048;-76
2021/05/19 11:05:33;;;;;;;;;;;;;;;14.76;62.23;98122.28;5072332;28;20059;-78
2021/05/19 11:10:34;;;;;;;31.52;13.65;;;;;;;14.95;62.81;98121.03;5050724;28;20037;-78
2021/05/19 11:12:59;;;;;;;25.10;13.23;;;;;;;15.02;62.35;98121.34;5063023;28;20036;-77
2021/05/19 11:15:56;;;;;;;17.63;11.65;;;;;;;14.99;61.87;98119.22;5062724;28;20028;-75
2021/05/19 11:21:19;;;;;;;13.60;7.95;;;;;;;14.89;61.16;98118.47;5061021;28;20033;-76
2021/05/19 11:24:09;;;;;;;7.00;4.68;;;;;;;14.93;61.35;98120.56;5063425;28;20020;-76
2021/05/19 11:26:43;;;;;;;10.55;6.60;;;;;;;14.99;60.94;98120.06;5062923;28;20497;-75
2021/05/19 11:29:11;;;;;;;10.43;5.85;;;;;;;15.05;60.60;98109.63;5064290;28;20490;-74
2021/05/19 11:31:43;;;;;;;13.55;6.70;;;;;;;15.09;60.55;98113.34;5062087;28;20554;-75
2021/05/19 11:34:16;;;;;;;10.73;6.55;;;;;;;15.16;60.55;98107.25;5063514;28;20032;-75
2021/05/19 11:36:43;;;;;;;32.60;10.85;;;;;;;15.22;59.99;98108.69;5063017;28;20051;-74